Sao Jeronimo, Brazil
Current Conditions -  °F | °C
As of 12:00 PM on Thursday 23 Oct 2014 (Local Time) from SBPA Reporting Station
Clear Clear  
Wind Chill: 75°   Ceiling: Unl
Heat Index: 75°   Visibility: 6mi
Dew Point: 57°   Wind: 8mph
Humidity: 53%   Direction: 280°W
Pressure: 30.06"   Gusts: NA
Location:  29.96°S, 51.72°W
Report Text: SBPA 231400Z 28007KT CAVOK 24/14 Q1018
Loading
Personal Weather Stations






























Interactive Weather Map
Tropical Storm Tracking
New forecast layout! Learn more

10-Day Weather Forecast

Advertisements
Track Severe Weather on mobile